createdAt,value
2022-08-03T00:00:49.393Z,4.88
2022-08-03T00:06:04.010Z,4.15
2022-08-03T00:11:07.091Z,4.18
2022-08-03T00:16:10.605Z,4.80
2022-08-03T00:21:12.606Z,4.30
2022-08-03T00:26:14.160Z,5.13
2022-08-03T00:31:15.925Z,3.67
2022-08-03T00:36:17.524Z,4.22
2022-08-03T00:41:19.046Z,4.32
2022-08-03T00:46:22.405Z,4.30
2022-08-03T00:51:24.178Z,4.28
2022-08-03T00:56:26.627Z,3.92
2022-08-03T01:01:30.721Z,4.20
2022-08-03T01:06:43.598Z,4.43
2022-08-03T01:12:00.643Z,4.20
2022-08-03T01:17:23.248Z,4.30
2022-08-03T01:23:03.518Z,4.20
2022-08-03T01:28:17.172Z,4.68
2022-08-03T01:33:18.670Z,4.38
2022-08-03T01:38:33.812Z,4.80
2022-08-03T01:44:28.057Z,4.40
2022-08-03T01:49:09.180Z,4.53
2022-08-03T01:54:13.303Z,4.53
2022-08-03T01:59:18.510Z,4.50
2022-08-03T02:04:22.724Z,4.53
2022-08-03T02:14:28.189Z,5.03
2022-08-03T02:19:35.644Z,4.90
2022-08-03T02:24:38.013Z,4.65
2022-08-03T02:29:41.745Z,4.68
2022-08-03T02:34:47.490Z,5.10
2022-08-03T02:39:53.230Z,5.07
2022-08-03T02:44:58.752Z,5.10
2022-08-03T02:50:02.572Z,5.32
2022-08-03T02:55:08.394Z,5.65
2022-08-03T03:00:10.446Z,6.55
2022-08-03T03:05:54.740Z,6.65
2022-08-03T03:10:37.197Z,6.07
2022-08-03T03:15:39.633Z,6.30
2022-08-03T03:20:41.577Z,8.00
2022-08-03T03:25:43.547Z,7.60
2022-08-03T03:30:52.590Z,7.80
2022-08-03T03:35:54.746Z,8.13
2022-08-03T03:40:56.786Z,8.48
2022-08-03T03:45:58.568Z,9.35
2022-08-03T03:51:01.051Z,10.05
2022-08-03T03:56:03.150Z,9.63
2022-08-03T04:01:04.811Z,9.48
2022-08-03T04:06:25.199Z,9.25
2022-08-03T04:11:31.824Z,8.15
2022-08-03T04:16:43.473Z,9.27
2022-08-03T04:21:50.675Z,9.52
2022-08-03T04:26:53.508Z,8.77
2022-08-03T04:31:58.622Z,8.25
2022-08-03T04:37:05.616Z,8.18
2022-08-03T04:42:09.271Z,7.55
2022-08-03T04:47:11.007Z,7.88
2022-08-03T04:52:12.610Z,7.15
2022-08-03T04:57:22.134Z,6.78
2022-08-03T05:02:25.043Z,7.40
2022-08-03T05:07:26.609Z,8.02
2022-08-03T05:12:37.950Z,7.10
2022-08-03T05:17:39.691Z,7.10
2022-08-03T05:22:41.333Z,7.47
2022-08-03T05:27:42.841Z,5.70
2022-08-03T05:32:44.342Z,5.10
2022-08-03T05:37:54.769Z,5.05
2022-08-03T05:42:57.111Z,5.65
2022-08-03T05:47:59.630Z,5.13
2022-08-03T05:53:01.137Z,5.07
2022-08-03T05:58:03.851Z,5.18
2022-08-03T06:03:05.405Z,5.68
2022-08-03T06:08:06.960Z,4.90
2022-08-03T06:13:08.475Z,5.07
2022-08-03T06:18:09.995Z,4.80
2022-08-03T06:23:15.975Z,4.38
2022-08-03T06:28:51.678Z,4.70
2022-08-03T06:34:31.356Z,4.50
2022-08-03T06:39:02.420Z,3.90
2022-08-03T06:44:04.668Z,4.00
2022-08-03T06:49:07.320Z,3.30
2022-08-03T06:54:08.868Z,3.10
2022-08-03T06:59:10.399Z,2.95
2022-08-03T07:04:31.940Z,2.60
2022-08-03T07:09:33.710Z,2.90
2022-08-03T07:14:35.296Z,2.53
2022-08-03T07:19:36.835Z,2.20
2022-08-03T07:24:38.567Z,2.20
2022-08-03T07:29:40.071Z,2.70
2022-08-03T07:34:41.590Z,2.67
2022-08-03T07:39:43.183Z,2.75
2022-08-03T07:44:44.716Z,2.70
2022-08-03T07:49:46.299Z,2.15
2022-08-03T07:54:47.795Z,2.40
2022-08-03T08:00:01.873Z,2.50
2022-08-03T08:05:05.857Z,1.63
2022-08-03T08:10:10.123Z,1.85
2022-08-03T08:15:11.927Z,1.73
2022-08-03T08:20:18.897Z,2.38
2022-08-03T08:25:31.587Z,1.58
2022-08-03T08:30:33.969Z,1.50
2022-08-03T08:40:38.354Z,1.73
2022-08-03T08:45:41.696Z,1.73
2022-08-03T08:55:59.571Z,1.63
2022-08-03T09:01:01.896Z,2.17
2022-08-03T09:06:04.273Z,1.40
2022-08-03T09:11:08.076Z,1.65
2022-08-03T09:16:15.956Z,1.70
2022-08-03T09:21:33.335Z,2.00
2022-08-03T09:26:37.428Z,1.40
2022-08-03T09:36:46.650Z,1.77
2022-08-03T09:42:04.451Z,1.75
2022-08-03T09:47:06.352Z,2.13
2022-08-03T09:52:37.929Z,1.48
2022-08-03T09:57:37.445Z,1.45
2022-08-03T10:02:40.980Z,1.80
2022-08-03T10:07:48.168Z,1.70
2022-08-03T10:12:50.619Z,1.55
2022-08-03T10:17:52.216Z,2.10
2022-08-03T10:22:54.722Z,2.15
2022-08-03T10:27:58.541Z,1.92
2022-08-03T10:33:49.218Z,2.05
2022-08-03T10:38:46.524Z,1.55
2022-08-03T10:43:56.608Z,1.92
2022-08-03T10:48:58.904Z,1.95
2022-08-03T10:54:01.789Z,3.05
2022-08-03T10:59:03.978Z,1.92
2022-08-03T11:04:10.253Z,2.10
2022-08-03T11:09:13.873Z,2.10
2022-08-03T11:14:24.442Z,1.67
2022-08-03T11:19:57.383Z,1.60
2022-08-03T11:24:59.991Z,1.60
2022-08-03T11:30:20.133Z,1.90
2022-08-03T11:35:36.569Z,2.35
2022-08-03T11:40:50.317Z,2.20
2022-08-03T11:46:03.454Z,1.38
2022-08-03T11:51:07.331Z,1.77
2022-08-03T11:56:12.946Z,1.88
2022-08-03T12:01:21.245Z,1.20
2022-08-03T12:06:24.589Z,1.52
2022-08-03T12:11:26.202Z,1.92
2022-08-03T12:16:28.855Z,1.50
2022-08-03T12:21:31.118Z,1.40
2022-08-03T12:26:58.556Z,1.60
2022-08-03T12:32:01.679Z,1.70
2022-08-03T12:37:22.156Z,1.52
2022-08-03T12:42:35.658Z,1.50
2022-08-03T12:47:51.072Z,1.85
2022-08-03T12:52:52.727Z,1.65
2022-08-03T12:57:54.525Z,1.48
2022-08-03T13:08:29.262Z,1.25
2022-08-03T13:13:39.782Z,1.17
2022-08-03T13:18:41.649Z,1.48
2022-08-03T13:23:43.825Z,0.90
2022-08-03T13:28:45.549Z,1.70
2022-08-03T13:33:47.196Z,0.80
2022-08-03T13:38:48.881Z,1.27
2022-08-03T13:44:06.693Z,1.10
2022-08-03T13:49:12.620Z,1.00
2022-08-03T13:54:14.256Z,1.83
2022-08-03T13:59:15.970Z,1.30
2022-08-03T14:04:22.292Z,0.80
2022-08-03T14:09:24.206Z,1.05
2022-08-03T14:14:25.858Z,1.25
2022-08-03T14:19:28.130Z,1.25
2022-08-03T14:24:29.968Z,1.00
2022-08-03T14:29:31.955Z,0.93
2022-08-03T14:34:33.538Z,0.85
2022-08-03T14:45:01.593Z,0.83
2022-08-03T14:50:31.915Z,1.10
2022-08-03T14:55:37.979Z,3.97
2022-08-03T15:00:40.577Z,1.60
2022-08-03T15:05:42.111Z,1.60
2022-08-03T15:10:45.303Z,4.45
2022-08-03T15:15:48.005Z,1.40
2022-08-03T15:20:50.641Z,1.38
2022-08-03T15:26:04.231Z,1.33
2022-08-03T15:31:18.968Z,1.25
2022-08-03T15:36:21.360Z,1.15
2022-08-03T15:41:22.890Z,1.30
2022-08-03T15:46:29.469Z,1.33
2022-08-03T15:51:31.459Z,1.65
2022-08-03T15:56:33.087Z,1.60
2022-08-03T16:01:34.874Z,2.08
2022-08-03T16:06:36.703Z,1.42
2022-08-03T16:11:38.473Z,1.20
2022-08-03T16:16:40.887Z,1.30
2022-08-03T16:21:48.839Z,1.80
2022-08-03T16:26:51.773Z,1.50
2022-08-03T16:31:53.253Z,1.58
2022-08-03T16:36:54.813Z,1.75
2022-08-03T16:42:01.289Z,1.13
2022-08-03T16:47:03.688Z,1.60
2022-08-03T16:52:07.115Z,1.87
2022-08-03T16:57:08.857Z,1.60
2022-08-03T17:02:21.128Z,1.73
2022-08-03T17:07:29.558Z,2.00
2022-08-03T17:12:31.902Z,1.95
2022-08-03T17:17:47.580Z,1.75
2022-08-03T17:23:19.204Z,2.13
2022-08-03T17:28:58.363Z,1.65
2022-08-03T17:34:02.039Z,1.40
2022-08-03T17:39:07.051Z,2.50
2022-08-03T17:44:15.465Z,2.08
2022-08-03T17:49:23.824Z,2.35
2022-08-03T18:00:28.195Z,2.92
2022-08-03T18:06:10.418Z,3.05
2022-08-03T18:11:03.486Z,4.45
2022-08-03T18:16:15.576Z,3.78
2022-08-03T18:21:23.980Z,3.90
2022-08-03T18:26:25.915Z,2.83
2022-08-03T18:31:59.789Z,3.90
2022-08-03T18:36:49.725Z,3.70
2022-08-03T18:41:51.978Z,4.80
2022-08-03T18:52:20.678Z,4.80
2022-08-03T18:57:34.902Z,6.25
2022-08-03T19:03:12.197Z,6.25
2022-08-03T19:08:33.805Z,6.15
2022-08-03T19:18:55.825Z,6.22
2022-08-03T19:24:05.601Z,5.75
2022-08-03T19:34:18.185Z,6.38
2022-08-03T19:39:20.082Z,6.72
2022-08-03T19:44:29.544Z,6.60
2022-08-03T19:49:59.929Z,7.53
2022-08-03T19:55:03.904Z,4.90
2022-08-03T20:00:09.190Z,6.78
2022-08-03T20:05:15.049Z,6.78
2022-08-03T20:10:18.901Z,7.68
2022-08-03T20:15:22.578Z,7.18
2022-08-03T20:20:36.370Z,8.32
2022-08-03T20:25:57.038Z,7.90
2022-08-03T20:31:01.943Z,8.00
2022-08-03T20:36:04.031Z,9.10
2022-08-03T20:41:05.991Z,8.75
2022-08-03T20:46:29.447Z,8.60
2022-08-03T20:51:50.225Z,8.38
2022-08-03T20:56:51.568Z,8.63
2022-08-03T21:01:53.591Z,8.57
2022-08-03T21:07:14.737Z,7.88
2022-08-03T21:12:27.020Z,7.53
2022-08-03T21:12:55.765Z,2.45
2022-08-03T21:17:41.873Z,8.75
2022-08-03T21:22:49.493Z,7.53
2022-08-03T21:27:52.035Z,8.00
2022-08-03T21:32:54.950Z,8.27
2022-08-03T21:38:15.896Z,8.82
2022-08-03T21:43:20.957Z,7.90
2022-08-03T21:48:25.136Z,9.45
2022-08-03T21:54:02.458Z,8.20
2022-08-03T21:58:55.210Z,8.57
2022-08-03T22:03:58.469Z,8.38
2022-08-03T22:09:00.392Z,8.68
2022-08-03T22:14:02.731Z,7.68
2022-08-03T22:19:04.362Z,7.05
2022-08-03T22:24:07.106Z,7.15
2022-08-03T22:29:08.938Z,7.45
2022-08-03T22:34:10.495Z,7.60
2022-08-03T22:39:12.625Z,7.88
2022-08-03T22:44:28.253Z,6.80
2022-08-03T22:49:31.353Z,6.22
2022-08-03T22:54:33.596Z,8.43
2022-08-03T22:59:42.011Z,7.43
2022-08-03T23:04:45.288Z,7.35
2022-08-03T23:09:48.610Z,7.30
2022-08-03T23:14:57.452Z,7.25
2022-08-03T23:20:06.316Z,8.35
2022-08-03T23:25:08.452Z,7.60
2022-08-03T23:30:11.221Z,12.55
2022-08-03T23:41:02.057Z,12.35
2022-08-03T23:46:04.589Z,12.55
2022-08-03T23:51:13.382Z,15.57
2022-08-03T23:56:17.637Z,13.20
